Terminal Aerodrome Forecast
Issued by NWS Norman, OK

Home | Current Version | Previous Version | Text Only | Print | Product List | Glossary On
Versions: 1 2 3 4 5 6 7 8 9 10 11 12 13 14
000
FTUS44 KOUN 180520
TAFSPS
TAF
KSPS 180520Z 1806/1906 12007KT P6SM BKN250
     FM181200 14010KT 1SM BR BKN004
     FM181600 16012KT 5SM BR BKN008
     FM181700 17014G20KT P6SM BKN015
     FM182100 17015G21KT P6SM SCT022=

USA.gov is the U.S. government's official web portal to all federal, state and local government web resources and services.